KMVY

Martha's Vineyard Airport

Vineyard Haven, Massachusetts, USA
METAR KMVY 101453Z 34012G18KT 10SM BKN034 02/M03 A3007 RMK AO2 SLP182 T00221033 53010
Observed Flight Rules
Dec-10 @ 14:53 UTC (38 minutes ago) Visual Flight Rules
Wind Visibility Clouds
340° at 12 knots
 Gusting to 18 knots
10 miles
  • Broken at 3,400' AGL
Temperatures Readings
Current 2°C / 36°F
Dewpoint -3°C / 27°F
Humidity 70%
Altimeter 30.07" Hg
Pressure 1018.2 hPa
Elevation 16
METAR KMVY 101453Z 34012G18KT 10SM BKN034 02/M03 A3007 RMK AO2 SLP182 T00221033 53010
Observed Flight Rules
Dec-10 @ 14:53 UTC
(38 minutes ago)
VFR
Wind Visibility
340° at 12 knots
 Gusting to 18 knots
10 miles
Clouds
  • Broken at 3,400' AGL
Temperature Dewpoint
2°C / 36°F -3°C / 27°F
Humidity Altimeter Pressure
70% 30.07" Hg 1018.2 hPa